METAR

ENBN 281550Z 22020G31KT 9000 -SHRA FEW007 BKN010 06/05 Q1021

ENMS 281550Z 24014G30KT 200V300 7000 SHRA FEW018 BKN024 07/04 Q1019 RMK WIND 412FT 20017G30KT

ENNM 281550Z 24018KT 7000 RADZ FEW007 SCT012 BKN021 06/04 Q1025

ENOL 281550Z 25025KT 9999 BKN028 07/03 Q1027 TEMPO 25030G40KT

ENST 281550Z 21024G34KT 6000 RA FEW004 BKN006 06/05 Q1018 RMK WIND 300FT 22022G34KT

ENVA 281550Z 24006KT 200V260 9999 BKN043 07/02 Q1028 RMK WIND 670FT 28009KT



TAF

TAF AMD ENVA 281540Z 2815/0112 26008KT 9999 BKN030 TEMPO 2815/2912 27020KT BECMG 0106/0108 BKN010 TEMPO 0108/0112 3000 RADZ BR BKN006